Terminal Aerodrome Forecast
Issued by NWS

Current Version | Previous Version | Text Only | Print | Product List | Glossary Off
Versions: 1 2 3 4 5 6 7 8 9 10 11 12 13 14 15 16 17 18 19 20 21 22 23 24 25 26 27 28 29 30

000
FTUS41 KILN 210903 AAA
TAFLUK
TAF AMD
KLUK 210903Z 2109/2206 19012G20KT P6SM SCT080
     FM211100 20012G20KT P6SM VCSH BKN028 OVC080
     FM211300 32011KT 3SM -SHRA BR BKN008 OVC015
     FM211600 01009KT P6SM VCSH OVC009
     FM212300 02012KT 5SM BR OVC012
     FM220200 03012KT 2SM -RA BR OVC006=

USA.gov is the U.S. government's official web portal to all federal, state and local government web resources and services.